Terminal Aerodrome Forecast
Issued by NWS

Home | Current Version | Previous Version | Text Only | Print | Product List | Glossary On
Versions: 1 2 3 4 5 6 7 8 9 10 11 12 13 14 15 16 17 18 19 20 21 22 23 24 25 26 27 28 29
000
FTUS44 KEPZ 232322
TAFLRU
TAF
KLRU 232322Z 2400/2424 07008KT P6SM VCTS BKN050CB
      TEMPO 2400/2404 VRB30G45KT 3SM TSRA BKN030CB
     FM240600 VRB04KT P6SM VCSH SCT030 BKN100
      TEMPO 2408/2412 BKN030
     FM241200 35007KT P6SM SCT060
     FM241900 31009KT P6SM BKN070=

USA.gov is the U.S. government's official web portal to all federal, state and local government web resources and services.